Time;durP1;ratioP1;P1;durP2;ratioP2;P2;SDS_P1;SDS_P2;PMS_P1;PMS_P2;Temp;Humidity;BMP_temperature;BMP_pressure;BME280_temperature;BME280_humidity;BME280_pressure;Samples;Min_cycle;Max_cycle;Signal;HPM_P1;HPM_P2
2023/03/15 00:00:54;;;;;;;4.45;2.03;;;3.40;99.90;;;;;;5156385;27;20047;-75
2023/03/15 00:03:23;;;;;;;4.00;1.95;;;3.40;99.90;;;;;;5155994;27;20042;-75
2023/03/15 00:05:51;;;;;;;8.43;2.13;;;3.60;99.90;;;;;;5155851;27;20118;-75
2023/03/15 00:08:17;;;;;;;3.85;1.88;;;3.40;99.90;;;;;;5155646;27;20047;-75
2023/03/15 00:10:44;;;;;;;5.53;2.38;;;3.40;99.90;;;;;;5155536;27;20038;-75
2023/03/15 00:13:11;;;;;;;5.70;2.53;;;3.40;99.90;;;;;;5155415;27;20543;-75
2023/03/15 00:15:48;;;;;;;5.10;2.10;;;3.60;99.90;;;;;;5155605;27;20167;-74
2023/03/15 00:18:14;;;;;;;8.63;2.50;;;3.50;99.90;;;;;;5155769;27;20078;-75
2023/03/15 00:20:40;;;;;;;7.00;2.50;;;3.60;99.90;;;;;;5137201;27;20324;-75
2023/03/15 00:23:06;;;;;;;7.82;2.40;;;3.60;99.90;;;;;;5155256;27;20047;-75
2023/03/15 00:25:32;;;;;;;4.82;2.50;;;3.50;99.90;;;;;;5136908;27;20049;-75
2023/03/15 00:27:58;;;;;;;5.38;1.98;;;4.00;99.90;;;;;;5136849;27;20467;-75
2023/03/15 00:30:23;;;;;;;7.43;2.20;;;3.50;99.90;;;;;;5154971;27;20077;-75
2023/03/15 00:32:52;;;;;;;3.92;2.33;;;3.50;99.90;;;;;;5155786;27;20043;-75
2023/03/15 00:35:19;;;;;;;5.68;2.00;;;3.70;99.90;;;;;;5155428;27;20039;-75
2023/03/15 00:37:46;;;;;;;4.50;2.10;;;3.50;99.90;;;;;;5136636;27;20042;-74
2023/03/15 00:40:12;;;;;;;3.83;1.80;;;3.50;99.90;;;;;;5155374;27;20125;-76
2023/03/15 00:42:39;;;;;;;6.90;3.50;;;3.40;99.90;;;;;;5155249;27;20567;-75
2023/03/15 00:45:05;;;;;;;6.00;1.80;;;3.90;99.90;;;;;;5137046;27;20106;-75
2023/03/15 00:47:31;;;;;;;5.72;2.63;;;3.40;99.90;;;;;;5137296;27;20043;-75
2023/03/15 00:49:57;;;;;;;4.50;1.95;;;3.40;99.90;;;;;;5155053;27;20083;-76
2023/03/15 00:52:22;;;;;;;5.10;2.33;;;3.40;99.90;;;;;;5155515;27;20129;-74
2023/03/15 00:54:52;;;;;;;6.20;2.17;;;3.70;99.90;;;;;;5155141;27;20451;-75
2023/03/15 00:57:18;;;;;;;8.40;2.63;;;3.60;99.90;;;;;;5155045;27;20126;-75
2023/03/15 00:59:44;;;;;;;5.55;2.45;;;3.80;99.90;;;;;;5154757;27;20105;-74
2023/03/15 01:02:10;;;;;;;3.17;1.83;;;3.30;99.90;;;;;;5154544;27;20130;-75
2023/03/15 01:04:36;;;;;;;3.58;1.83;;;3.40;99.90;;;;;;5154555;27;20074;-75
2023/03/15 01:07:02;;;;;;;7.78;2.13;;;3.30;99.90;;;;;;5154146;27;20086;-75
2023/03/15 01:09:30;;;;;;;4.15;2.00;;;3.40;99.90;;;;;;5136566;27;20054;-75
2023/03/15 01:11:59;;;;;;;9.07;2.20;;;3.30;99.90;;;;;;5154505;27;20057;-75
2023/03/15 01:14:24;;;;;;;5.05;1.98;;;3.30;99.90;;;;;;5136610;27;20035;-75
2023/03/15 01:16:50;;;;;;;6.72;1.98;;;3.30;99.90;;;;;;5135932;27;20039;-75
2023/03/15 01:19:16;;;;;;;6.65;3.35;;;3.30;99.90;;;;;;5154257;27;20475;-75
2023/03/15 01:21:43;;;;;;;8.75;2.30;;;3.20;99.90;;;;;;5136587;27;20085;-75
2023/03/15 01:24:14;;;;;;;8.27;2.42;;;3.20;99.90;;;;;;5154295;27;20490;-75
2023/03/15 01:26:40;;;;;;;5.43;1.80;;;3.50;99.90;;;;;;5136278;27;20046;-76
2023/03/15 01:29:06;;;;;;;6.10;2.95;;;3.30;99.90;;;;;;5154565;27;20099;-75
2023/03/15 01:31:32;;;;;;;4.80;2.38;;;3.30;99.90;;;;;;5154209;27;20042;-75
2023/03/15 01:33:58;;;;;;;6.22;1.88;;;3.40;99.90;;;;;;5153915;27;20411;-75
2023/03/15 01:36:24;;;;;;;5.63;1.92;;;3.40;99.90;;;;;;5154147;27;20047;-75
2023/03/15 01:38:50;;;;;;;7.28;2.35;;;3.70;99.90;;;;;;5154054;27;20517;-74
2023/03/15 01:41:17;;;;;;;6.53;1.65;;;3.30;99.90;;;;;;5154152;27;20093;-75
2023/03/15 01:43:47;;;;;;;4.78;1.45;;;3.30;99.90;;;;;;5135500;27;20424;-76
2023/03/15 01:46:19;;;;;;;4.60;1.80;;;3.30;99.90;;;;;;5135699;27;20039;-75
2023/03/15 01:49:07;;;;;;;5.07;1.67;;;3.20;99.90;;;;;;5136002;27;20079;-75
2023/03/15 01:51:40;;;;;;;4.65;1.95;;;3.20;99.90;;;;;;5154397;27;20058;-75
2023/03/15 01:54:12;;;;;;;3.42;1.55;;;3.20;99.90;;;;;;5154053;27;20039;-76
2023/03/15 01:56:42;;;;;;;3.85;1.60;;;3.20;99.90;;;;;;5136007;27;20117;-75
2023/03/15 01:59:14;;;;;;;4.15;2.13;;;3.20;99.90;;;;;;5135657;27;20104;-76
2023/03/15 02:01:44;;;;;;;7.40;3.20;;;3.20;99.90;;;;;;5154627;27;20078;-75
2023/03/15 02:04:17;;;;;;;5.03;1.85;;;3.10;99.90;;;;;;5135829;27;20482;-75
2023/03/15 02:06:45;;;;;;;4.70;1.63;;;3.10;99.90;;;;;;5154315;27;20046;-75
2023/03/15 02:09:15;;;;;;;6.40;2.30;;;3.00;99.90;;;;;;5135605;27;20042;-75
2023/03/15 02:11:42;;;;;;;4.63;1.88;;;3.10;99.90;;;;;;5135793;27;20095;-75
2023/03/15 02:14:10;;;;;;;4.30;1.92;;;3.00;99.90;;;;;;5154095;27;20049;-76
2023/03/15 02:16:37;;;;;;;4.30;1.40;;;3.00;99.90;;;;;;5153964;27;20117;-75
2023/03/15 02:19:10;;;;;;;5.72;1.73;;;3.00;99.90;;;;;;5156372;27;20042;-75
2023/03/15 02:21:59;;;;;;;3.90;1.95;;;3.00;99.90;;;;;;5158085;27;20130;-76
2023/03/15 02:24:46;;;;;;;11.93;2.05;;;2.90;99.90;;;;;;5139785;27;20091;-76
2023/03/15 02:27:12;;;;;;;6.35;1.70;;;2.90;99.90;;;;;;5158431;27;20057;-76
2023/03/15 02:29:37;;;;;;;9.48;1.92;;;3.90;99.90;;;;;;5157723;27;20364;-76
2023/03/15 02:32:03;;;;;;;5.20;2.10;;;2.90;99.90;;;;;;5157756;27;20098;-76
2023/03/15 02:34:30;;;;;;;6.95;1.95;;;2.90;99.90;;;;;;5157659;27;20039;-75
2023/03/15 02:36:56;;;;;;;5.57;2.05;;;2.80;99.90;;;;;;5157969;27;20471;-76
2023/03/15 02:39:23;;;;;;;9.18;1.90;;;2.80;99.90;;;;;;5139424;27;20046;-75
2023/03/15 02:41:56;;;;;;;5.78;1.90;;;3.40;99.90;;;;;;5157973;27;20051;-76
2023/03/15 02:44:39;;;;;;;4.03;1.63;;;2.80;99.90;;;;;;5139272;27;20158;-75
2023/03/15 02:47:29;;;;;;;8.05;2.58;;;2.80;99.90;;;;;;5157481;27;20102;-75
2023/03/15 02:49:55;;;;;;;6.65;1.73;;;3.00;99.90;;;;;;5157328;27;20051;-75
2023/03/15 02:52:21;;;;;;;11.02;2.00;;;2.80;99.90;;;;;;5157295;27;20045;-75
2023/03/15 02:54:48;;;;;;;6.22;1.98;;;3.10;99.90;;;;;;5156869;27;20456;-75
2023/03/15 02:57:15;;;;;;;6.85;2.20;;;2.70;99.90;;;;;;5138736;27;20569;-75
2023/03/15 02:59:41;;;;;;;8.50;2.22;;;2.70;99.90;;;;;;5157043;27;20035;-75
2023/03/15 03:02:10;;;;;;;6.78;1.70;;;2.70;99.90;;;;;;5156773;27;20416;-75
2023/03/15 03:04:36;;;;;;;9.80;3.03;;;2.70;99.90;;;;;;5157287;27;20164;-75
2023/03/15 03:07:03;;;;;;;9.25;2.15;;;3.20;99.90;;;;;;5156951;27;20039;-75
2023/03/15 03:09:28;;;;;;;2.60;1.77;;;2.60;99.90;;;;;;5157508;27;20046;-75
2023/03/15 03:11:54;;;;;;;5.82;2.30;;;2.60;99.90;;;;;;5157044;27;20527;-75
2023/03/15 03:14:22;;;;;;;8.43;1.55;;;2.60;99.90;;;;;;5156840;27;20095;-75
2023/03/15 03:16:49;;;;;;;6.35;2.10;;;2.50;99.90;;;;;;5138894;27;20046;-74
2023/03/15 03:19:14;;;;;;;4.07;2.03;;;2.70;99.90;;;;;;5156760;27;20121;-75
2023/03/15 03:21:43;;;;;;;4.22;1.70;;;2.70;99.90;;;;;;5156826;27;20085;-75
2023/03/15 03:24:10;;;;;;;6.15;2.40;;;2.40;99.90;;;;;;5156701;27;20046;-75
2023/03/15 03:26:36;;;;;;;7.38;3.50;;;2.60;99.90;;;;;;5138754;27;20101;-75
2023/03/15 03:29:04;;;;;;;4.75;1.85;;;2.50;99.90;;;;;;5156222;27;20043;-75
2023/03/15 03:31:32;;;;;;;11.63;2.30;;;2.40;99.90;;;;;;5156394;27;20558;-75
2023/03/15 03:33:59;;;;;;;3.13;1.98;;;2.30;99.90;;;;;;5156447;27;20049;-75
2023/03/15 03:36:25;;;;;;;7.70;2.22;;;2.50;99.90;;;;;;5156735;27;20056;-75
2023/03/15 03:38:51;;;;;;;3.70;1.92;;;2.80;99.90;;;;;;5155999;27;20410;-75
2023/03/15 03:41:16;;;;;;;4.22;1.70;;;2.20;99.90;;;;;;5156940;27;20046;-75
2023/03/15 03:43:42;;;;;;;12.57;2.33;;;2.10;99.90;;;;;;5156395;27;20570;-75
2023/03/15 03:46:08;;;;;;;4.72;2.22;;;2.30;99.90;;;;;;5156557;27;20038;-75
2023/03/15 03:48:34;;;;;;;10.18;3.40;;;2.20;99.90;;;;;;5156084;27;20078;-75
2023/03/15 03:50:59;;;;;;;3.10;1.80;;;3.20;99.90;;;;;;5156070;27;20050;-75
2023/03/15 03:53:25;;;;;;;2.92;1.55;;;2.50;99.90;;;;;;5155765;27;20058;-75
2023/03/15 03:55:53;;;;;;;3.10;1.65;;;2.20;99.90;;;;;;5156542;27;20043;-75
2023/03/15 03:58:19;;;;;;;4.63;1.80;;;2.20;99.90;;;;;;5155788;27;20046;-75
2023/03/15 04:00:45;;;;;;;5.43;1.75;;;2.30;99.90;;;;;;5156539;27;20082;-75
2023/03/15 04:03:10;;;;;;;5.32;1.85;;;2.20;99.90;;;;;;5155764;27;20518;-75
2023/03/15 04:05:36;;;;;;;4.78;2.33;;;2.10;99.90;;;;;;5137517;27;20497;-75
2023/03/15 04:08:02;;;;;;;3.38;1.80;;;1.00;99.90;;;;;;5155983;27;20095;-75
2023/03/15 04:10:28;;;;;;;7.00;1.92;;;2.10;99.90;;;;;;5155704;27;20418;-75
2023/03/15 04:12:55;;;;;;;5.05;2.00;;;2.20;99.90;;;;;;5155667;27;20474;-75
2023/03/15 04:15:22;;;;;;;5.07;1.80;;;2.10;99.90;;;;;;5155774;27;20046;-75
2023/03/15 04:17:57;;;;;;;4.60;2.10;;;2.00;99.90;;;;;;5155756;27;20142;-75
2023/03/15 04:20:25;;;;;;;4.85;1.98;;;2.00;99.90;;;;;;5137370;27;20087;-75
2023/03/15 04:22:51;;;;;;;3.78;1.63;;;1.90;99.90;;;;;;5155434;27;20098;-74
2023/03/15 04:25:20;;;;;;;3.30;1.98;;;2.30;99.90;;;;;;5155320;27;20485;-74
2023/03/15 04:27:57;;;;;;;6.55;2.45;;;1.90;99.90;;;;;;5155892;27;20046;-75
2023/03/15 04:30:27;;;;;;;5.72;1.90;;;2.00;99.90;;;;;;5155844;27;20087;-75
2023/03/15 04:33:02;;;;;;;5.40;2.15;;;2.80;99.90;;;;;;5155174;27;20086;-75
2023/03/15 04:35:32;;;;;;;1.98;1.75;;;2.80;99.90;;;;;;5155380;27;20467;-74
2023/03/15 04:37:59;;;;;;;5.57;1.70;;;2.40;99.90;;;;;;5136686;27;20053;-75
2023/03/15 04:40:25;;;;;;;4.15;2.30;;;1.80;99.90;;;;;;5154879;27;20042;-74
2023/03/15 04:42:54;;;;;;;4.82;1.70;;;1.80;99.90;;;;;;5155139;27;20463;-75
2023/03/15 04:45:23;;;;;;;7.28;2.08;;;1.80;99.90;;;;;;5154929;27;20042;-75
2023/03/15 04:47:53;;;;;;;4.05;1.60;;;1.80;99.90;;;;;;5155001;27;20083;-74
2023/03/15 04:50:20;;;;;;;2.20;1.90;;;1.70;99.90;;;;;;5136580;27;20532;-75
2023/03/15 04:52:46;;;;;;;5.15;1.90;;;1.70;99.90;;;;;;5154793;27;20076;-74
2023/03/15 04:55:12;;;;;;;1.80;1.42;;;1.60;99.90;;;;;;5155056;27;20190;-75
2023/03/15 04:57:38;;;;;;;4.85;1.88;;;1.80;99.90;;;;;;5155134;27;20427;-75
2023/03/15 05:00:08;;;;;;;7.20;1.98;;;1.80;99.90;;;;;;5154622;27;20082;-74
2023/03/15 05:02:38;;;;;;;7.43;2.20;;;1.70;99.90;;;;;;5154812;27;20114;-74
2023/03/15 05:05:08;;;;;;;6.85;1.77;;;1.70;99.90;;;;;;5154784;27;20046;-74
2023/03/15 05:07:35;;;;;;;1.70;1.30;;;1.90;99.90;;;;;;5154843;27;20073;-75
2023/03/15 05:10:01;;;;;;;3.38;1.80;;;1.60;99.90;;;;;;5154554;27;20058;-75
2023/03/15 05:12:27;;;;;;;6.75;2.20;;;1.70;99.90;;;;;;5154436;27;20051;-74
2023/03/15 05:14:53;;;;;;;4.28;1.73;;;1.60;99.90;;;;;;5154830;27;20043;-74
2023/03/15 05:17:21;;;;;;;2.58;1.63;;;2.50;99.90;;;;;;5155523;27;20046;-75
2023/03/15 05:19:50;;;;;;;2.78;1.73;;;2.10;99.90;;;;;;5136920;27;20053;-75
2023/03/15 05:22:17;;;;;;;2.33;1.13;;;1.70;99.90;;;;;;5154758;27;20110;-75
2023/03/15 05:24:43;;;;;;;4.97;1.67;;;1.70;99.90;;;;;;5154844;27;20050;-75
2023/03/15 05:27:10;;;;;;;3.75;1.50;;;1.70;99.90;;;;;;5155141;27;20046;-75
2023/03/15 05:29:36;;;;;;;5.05;1.77;;;1.70;99.90;;;;;;5136278;27;20046;-75
2023/03/15 05:32:03;;;;;;;5.40;2.03;;;1.70;99.90;;;;;;5154139;27;20068;-75
2023/03/15 05:34:31;;;;;;;7.22;1.50;;;1.70;99.90;;;;;;5154803;27;20124;-75
2023/03/15 05:36:57;;;;;;;3.00;1.30;;;1.60;99.90;;;;;;5135734;27;20125;-75
2023/03/15 05:39:23;;;;;;;1.75;1.23;;;1.60;99.90;;;;;;5154939;27;20050;-75
2023/03/15 05:41:49;;;;;;;3.15;1.58;;;1.60;99.90;;;;;;5154712;27;20039;-75
2023/03/15 05:44:15;;;;;;;1.98;1.35;;;1.50;99.90;;;;;;5154662;27;20047;-74
2023/03/15 05:46:41;;;;;;;3.83;1.38;;;1.50;99.90;;;;;;5135739;27;20046;-74
2023/03/15 05:49:07;;;;;;;3.05;1.20;;;1.50;99.90;;;;;;5154308;27;20050;-75
2023/03/15 05:51:33;;;;;;;5.00;1.83;;;1.80;99.90;;;;;;5154101;27;20050;-75
2023/03/15 05:53:58;;;;;;;4.65;1.50;;;1.50;99.90;;;;;;5158667;27;20035;-75
2023/03/15 05:56:24;;;;;;;3.55;1.63;;;1.60;99.90;;;;;;5158511;27;20046;-75
2023/03/15 05:58:50;;;;;;;6.65;2.17;;;1.60;99.90;;;;;;5158181;27;20043;-75
2023/03/15 06:01:16;;;;;;;4.00;1.95;;;1.40;99.90;;;;;;5157837;27;20061;-75
2023/03/15 06:03:41;;;;;;;4.60;1.90;;;1.80;99.90;;;;;;5139590;27;20078;-75
2023/03/15 06:06:07;;;;;;;3.25;1.98;;;1.40;99.90;;;;;;5158052;27;20095;-74
2023/03/15 06:08:33;;;;;;;8.10;2.55;;;1.90;99.90;;;;;;5157793;27;20057;-75
2023/03/15 06:10:59;;;;;;;4.50;2.35;;;1.90;99.90;;;;;;5157734;27;20047;-75
2023/03/15 06:13:24;;;;;;;10.43;2.78;;;1.90;99.90;;;;;;5157598;27;20046;-75
2023/03/15 06:15:50;;;;;;;4.60;1.70;;;1.70;99.90;;;;;;5157605;27;20043;-75
2023/03/15 06:18:16;;;;;;;3.20;1.77;;;1.50;99.90;;;;;;5157958;27;20455;-75
2023/03/15 06:20:42;;;;;;;12.82;3.33;;;1.50;99.90;;;;;;5139313;27;20049;-74
2023/03/15 06:23:08;;;;;;;5.47;1.98;;;1.60;99.90;;;;;;5157316;27;20082;-75
2023/03/15 06:25:34;;;;;;;5.57;2.05;;;1.90;99.90;;;;;;5157719;27;20042;-75
2023/03/15 06:28:00;;;;;;;6.13;1.98;;;1.60;99.90;;;;;;5157607;27;20050;-75
2023/03/15 06:30:26;;;;;;;3.33;1.73;;;2.00;99.90;;;;;;5139476;27;20233;-74
2023/03/15 06:32:52;;;;;;;5.22;2.00;;;1.70;99.90;;;;;;5157222;27;20035;-74
2023/03/15 06:35:18;;;;;;;7.65;2.30;;;2.30;99.90;;;;;;5157456;27;20030;-74
2023/03/15 06:37:44;;;;;;;9.05;2.05;;;1.60;99.90;;;;;;5157342;27;20134;-76
2023/03/15 06:40:10;;;;;;;6.15;1.83;;;1.60;99.90;;;;;;5157678;27;20047;-76
2023/03/15 06:42:37;;;;;;;5.57;1.75;;;1.60;99.90;;;;;;5157244;27;20046;-75
2023/03/15 06:45:04;;;;;;;2.50;1.80;;;1.90;99.90;;;;;;5157504;27;20042;-76
2023/03/15 06:47:30;;;;;;;3.95;1.75;;;1.60;99.90;;;;;;5157445;27;20047;-75
2023/03/15 06:49:56;;;;;;;6.00;2.33;;;1.60;99.90;;;;;;5157045;27;20062;-74
2023/03/15 06:52:21;;;;;;;5.43;2.78;;;1.70;99.90;;;;;;5157140;27;20073;-75
2023/03/15 06:54:47;;;;;;;5.65;2.25;;;1.70;99.90;;;;;;5156940;27;20544;-75
2023/03/15 06:57:13;;;;;;;2.65;1.73;;;1.70;99.90;;;;;;5156953;27;20344;-75
2023/03/15 06:59:39;;;;;;;2.65;1.70;;;1.80;99.90;;;;;;5156785;27;20103;-75
2023/03/15 07:02:05;;;;;;;6.35;2.15;;;1.80;99.90;;;;;;5156924;27;20059;-75
2023/03/15 07:04:31;;;;;;;4.00;1.80;;;1.90;99.90;;;;;;5156193;27;20054;-75
2023/03/15 07:06:56;;;;;;;3.92;1.83;;;2.00;99.90;;;;;;5138427;27;20042;-75
2023/03/15 07:09:22;;;;;;;5.63;1.88;;;2.50;99.90;;;;;;5156850;27;20050;-75
2023/03/15 07:11:48;;;;;;;3.78;1.60;;;2.10;99.90;;;;;;5156881;27;20459;-76
2023/03/15 07:14:13;;;;;;;5.32;2.38;;;2.30;99.90;;;;;;5156942;27;20075;-76
2023/03/15 07:16:39;;;;;;;4.93;2.72;;;2.40;99.90;;;;;;5156708;27;20046;-76
2023/03/15 07:19:05;;;;;;;6.43;2.13;;;2.40;99.90;;;;;;5156622;27;20043;-75
2023/03/15 07:21:30;;;;;;;7.35;2.83;;;2.50;99.90;;;;;;5156524;27;20034;-75
2023/03/15 07:23:56;;;;;;;6.60;2.28;;;2.60;99.90;;;;;;5155982;27;20055;-76
2023/03/15 07:26:22;;;;;;;6.13;1.77;;;2.70;99.90;;;;;;5156834;27;20046;-76
2023/03/15 07:28:47;;;;;;;6.63;1.70;;;3.10;99.90;;;;;;5156704;27;20049;-75
2023/03/15 07:31:13;;;;;;;3.55;1.73;;;2.90;99.90;;;;;;5156688;27;20445;-76
2023/03/15 07:33:39;;;;;;;8.18;2.25;;;3.00;99.90;;;;;;5156186;27;20053;-76
2023/03/15 07:36:06;;;;;;;3.03;1.80;;;3.00;99.90;;;;;;5155935;27;20438;-76
2023/03/15 07:38:33;;;;;;;5.22;1.92;;;3.10;99.90;;;;;;5156657;27;20039;-77
2023/03/15 07:41:04;;;;;;;6.53;1.90;;;3.20;99.90;;;;;;5138024;27;20509;-75
2023/03/15 07:43:30;;;;;;;6.63;2.08;;;3.30;99.90;;;;;;5155966;27;20042;-75
2023/03/15 07:45:56;;;;;;;6.75;2.08;;;3.30;99.90;;;;;;5156532;27;20138;-75
2023/03/15 07:48:22;;;;;;;3.55;1.70;;;3.50;99.90;;;;;;5120233;27;20395;-76
2023/03/15 07:50:47;;;;;;;6.20;2.08;;;3.80;99.90;;;;;;5155975;27;20116;-75
2023/03/15 07:53:13;;;;;;;3.00;2.03;;;3.70;99.90;;;;;;5155766;27;20107;-76
2023/03/15 07:55:39;;;;;;;5.68;2.13;;;3.70;99.90;;;;;;5155813;27;20059;-76
2023/03/15 07:58:04;;;;;;;5.63;2.00;;;3.80;99.90;;;;;;5155849;27;20085;-76
2023/03/15 08:00:31;;;;;;;5.25;2.28;;;3.90;99.90;;;;;;5137398;27;20401;-75
2023/03/15 08:02:57;;;;;;;3.17;1.60;;;4.10;99.90;;;;;;5156072;27;20050;-75
2023/03/15 08:05:23;;;;;;;8.60;1.75;;;4.10;99.90;;;;;;5155616;27;20038;-75
2023/03/15 08:07:49;;;;;;;6.43;2.15;;;4.40;99.90;;;;;;5155540;27;20175;-75
2023/03/15 08:10:16;;;;;;;2.90;1.63;;;4.50;99.90;;;;;;5155270;27;20043;-75
2023/03/15 08:12:43;;;;;;;3.13;1.67;;;4.60;99.90;;;;;;5155411;27;20074;-75
2023/03/15 08:15:10;;;;;;;4.35;1.33;;;5.00;99.90;;;;;;5155077;27;20058;-76
2023/03/15 08:17:37;;;;;;;5.80;1.98;;;5.60;99.90;;;;;;5154657;27;20053;-75
2023/03/15 08:20:04;;;;;;;5.75;1.40;;;6.40;99.90;;;;;;5155187;27;20099;-76
2023/03/15 08:22:30;;;;;;;8.23;2.00;;;7.40;99.90;;;;;;5155427;27;20046;-76
2023/03/15 08:24:56;;;;;;;3.83;2.03;;;8.50;99.90;;;;;;5136956;27;20057;-76
2023/03/15 08:27:23;;;;;;;4.03;1.58;;;9.20;99.90;;;;;;5155490;27;20046;-76
2023/03/15 08:29:50;;;;;;;5.28;1.70;;;10.10;99.90;;;;;;5137688;27;20163;-76
2023/03/15 08:32:16;;;;;;;2.65;1.45;;;10.50;99.90;;;;;;5137225;27;20051;-76
2023/03/15 08:34:42;;;;;;;5.50;1.80;;;10.40;99.90;;;;;;5136751;27;20046;-76
2023/03/15 08:37:11;;;;;;;7.72;2.10;;;10.60;99.90;;;;;;5136733;27;20058;-72
2023/03/15 08:39:38;;;;;;;5.97;1.98;;;10.30;99.40;;;;;;5137098;27;20038;-72
2023/03/15 08:42:04;;;;;;;2.60;1.65;;;10.50;99.90;;;;;;5154889;27;20047;-72
2023/03/15 08:44:30;;;;;;;3.38;1.80;;;11.20;99.90;;;;;;5155205;27;20053;-76
2023/03/15 08:46:56;;;;;;;3.63;1.75;;;11.10;99.90;;;;;;5136324;27;20134;-74
2023/03/15 08:49:22;;;;;;;2.97;1.83;;;11.50;99.90;;;;;;5119207;27;20080;-74
2023/03/15 08:51:47;;;;;;;4.85;1.80;;;12.10;99.90;;;;;;5154618;27;20479;-76
2023/03/15 08:54:13;;;;;;;5.65;1.60;;;12.50;99.90;;;;;;5135891;27;20047;-76
2023/03/15 08:56:40;;;;;;;3.58;1.40;;;12.20;99.90;;;;;;5154995;27;20051;-76
2023/03/15 08:59:07;;;;;;;7.80;1.88;;;12.70;99.90;;;;;;5136113;27;20104;-76
2023/03/15 09:01:33;;;;;;;2.33;1.45;;;12.40;99.90;;;;;;5155058;27;20098;-76
2023/03/15 09:04:00;;;;;;;5.40;1.30;;;12.30;97.90;;;;;;5154884;27;20042;-76
2023/03/15 09:06:27;;;;;;;5.47;1.65;;;12.30;99.90;;;;;;5136872;27;20083;-76
2023/03/15 09:08:53;;;;;;;4.35;1.60;;;12.50;99.90;;;;;;5154460;27;20585;-75
2023/03/15 09:11:19;;;;;;;5.53;1.70;;;12.00;94.10;;;;;;5154497;27;20129;-76
2023/03/15 09:13:45;;;;;;;3.08;1.35;;;12.10;99.30;;;;;;5154956;27;20043;-76
2023/03/15 09:16:11;;;;;;;6.05;2.00;;;11.80;99.90;;;;;;5136773;27;20473;-76
2023/03/15 09:18:36;;;;;;;4.00;1.55;;;12.30;99.90;;;;;;5154585;27;20625;-77
2023/03/15 09:21:04;;;;;;;4.70;2.33;;;12.50;93.70;;;;;;5154839;27;20400;-76
2023/03/15 09:23:30;;;;;;;4.55;1.35;;;13.00;99.90;;;;;;5154288;27;20046;-76
2023/03/15 09:25:55;;;;;;;3.50;1.67;;;13.10;95.90;;;;;;5154312;27;20058;-77
2023/03/15 09:28:21;;;;;;;2.75;1.20;;;13.30;92.40;;;;;;5153923;27;20360;-76
2023/03/15 09:30:47;;;;;;;4.00;1.42;;;12.60;93.00;;;;;;5154430;27;20046;-79
2023/03/15 09:33:13;;;;;;;3.90;1.38;;;12.60;96.10;;;;;;5135772;27;20038;-76
2023/03/15 09:35:40;;;;;;;6.13;1.80;;;12.80;93.30;;;;;;5154263;27;20069;-77
2023/03/15 09:38:05;;;;;;;2.10;1.33;;;12.60;93.60;;;;;;5154397;27;20099;-77
2023/03/15 09:40:37;;;;;;;4.13;2.25;;;12.50;95.80;;;;;;5154178;27;20110;-77
2023/03/15 09:43:05;;;;;;;6.47;1.98;;;12.80;90.10;;;;;;5153965;27;20038;-77
2023/03/15 09:45:55;;;;;;;4.55;2.50;;;12.10;85.00;;;;;;5153710;27;20039;-76
2023/03/15 09:48:34;;;;;;;6.05;1.88;;;12.90;85.40;;;;;;5153902;27;20039;-77
2023/03/15 09:51:09;;;;;;;3.78;1.25;;;13.30;90.10;;;;;;5153906;27;20061;-77
2023/03/15 09:53:53;;;;;;;4.40;1.40;;;13.50;91.00;;;;;;5154389;27;20072;-76
2023/03/15 09:56:26;;;;;;;4.03;1.35;;;14.00;86.20;;;;;;5153983;27;20039;-76
2023/03/15 09:58:57;;;;;;;6.50;1.88;;;13.70;90.60;;;;;;5153988;27;20444;-77
2023/03/15 10:01:30;;;;;;;4.82;1.38;;;13.00;88.50;;;;;;5153729;27;20058;-76
2023/03/15 10:03:56;;;;;;;3.97;1.70;;;13.40;93.70;;;;;;5118407;27;20050;-77
2023/03/15 10:06:34;;;;;;;3.58;1.60;;;13.80;92.00;;;;;;5118225;27;20341;-77
2023/03/15 10:09:03;;;;;;;3.42;1.80;;;14.50;87.40;;;;;;5135616;27;20072;-76
2023/03/15 10:11:55;;;;;;;4.10;1.45;;;14.40;89.50;;;;;;5153853;27;20051;-77
2023/03/15 10:14:33;;;;;;;7.60;2.08;;;14.40;86.30;;;;;;5135234;27;20035;-76
2023/03/15 10:17:02;;;;;;;5.00;1.90;;;14.30;82.60;;;;;;5154010;27;20101;-76
2023/03/15 10:19:44;;;;;;;3.03;1.10;;;14.30;92.30;;;;;;5153688;27;20047;-77
2023/03/15 10:22:12;;;;;;;2.67;1.00;;;14.10;79.00;;;;;;5153803;27;20046;-76
2023/03/15 10:24:58;;;;;;;4.00;1.52;;;14.80;87.70;;;;;;5153428;27;20041;-76
2023/03/15 10:27:54;;;;;;;4.22;1.20;;;14.40;90.30;;;;;;5153174;27;20039;-77
2023/03/15 10:30:25;;;;;;;2.33;1.02;;;13.80;85.00;;;;;;5149188;27;20103;-76
2023/03/15 10:33:02;;;;;;;8.20;1.55;;;13.40;90.90;;;;;;5153610;27;20035;-76
2023/03/15 10:35:28;;;;;;;3.08;1.25;;;14.10;90.30;;;;;;5135972;27;20050;-77
2023/03/15 10:37:54;;;;;;;3.35;1.48;;;14.40;83.80;;;;;;5153517;27;20074;-77
2023/03/15 10:40:40;;;;;;;8.88;1.60;;;14.70;92.00;;;;;;5156655;27;20081;-77
2023/03/15 10:43:23;;;;;;;4.80;1.40;;;13.30;84.80;;;;;;5157219;27;20054;-77
2023/03/15 10:45:59;;;;;;;3.80;1.23;;;13.40;83.00;;;;;;5157209;27;20129;-77
2023/03/15 10:48:36;;;;;;;2.22;1.15;;;14.00;85.90;;;;;;5157230;27;20041;-77
2023/03/15 10:51:24;;;;;;;4.07;1.40;;;13.20;82.30;;;;;;5157164;27;20043;-77
2023/03/15 10:53:57;;;;;;;3.38;1.95;;;12.50;91.70;;;;;;5157380;27;20061;-77
2023/03/15 10:56:25;;;;;;;;;;;12.20;87.60;;;;;;5139416;27;20098;-76
2023/03/15 10:58:53;;;;;;;7.15;1.75;;;11.10;84.00;;;;;;5157006;27;19918;-76
2023/03/15 11:01:33;;;;;;;2.00;1.30;;;10.60;93.90;;;;;;5138160;27;20059;-76
2023/03/15 11:04:26;;;;;;;4.57;2.17;;;10.10;91.70;;;;;;5157452;27;20054;-76
2023/03/15 11:06:57;;;;;;;2.83;1.33;;;9.60;91.20;;;;;;5157062;27;20047;-76
2023/03/15 11:09:36;;;;;;;3.92;1.98;;;9.30;92.00;;;;;;5138476;27;20047;-76
2023/03/15 11:12:06;;;;;;;6.05;1.63;;;9.20;93.90;;;;;;5156786;27;20049;-76
2023/03/15 11:14:40;;;;;;;3.83;1.50;;;9.30;93.40;;;;;;5156657;27;20043;-76
2023/03/15 11:17:13;;;;;;;3.53;1.23;;;9.40;92.30;;;;;;5156664;27;20138;-76
2023/03/15 11:19:43;;;;;;;2.85;1.23;;;9.50;93.50;;;;;;5157130;27;20042;-75
2023/03/15 11:22:12;;;;;;;6.60;1.80;;;9.60;92.30;;;;;;5137888;27;20386;-76
2023/03/15 11:24:39;;;;;;;6.18;1.42;;;9.50;93.30;;;;;;5156061;27;20078;-76
2023/03/15 11:27:13;;;;;;;2.30;1.25;;;9.40;92.60;;;;;;5156535;27;20042;-77
2023/03/15 11:29:50;;;;;;;2.22;1.40;;;9.40;90.90;;;;;;5138108;27;20043;-76
2023/03/15 11:32:22;;;;;;;5.88;2.08;;;9.20;90.10;;;;;;5156603;27;20046;-76
2023/03/15 11:35:06;;;;;;;4.53;1.37;;;9.10;90.20;;;;;;5157352;27;20089;-76
2023/03/15 11:37:41;;;;;;;1.65;1.48;;;9.10;90.80;;;;;;5156084;27;20579;-77
2023/03/15 11:40:23;;;;;;;6.57;2.00;;;9.10;91.20;;;;;;5156476;27;20047;-75
2023/03/15 11:43:10;;;;;;;3.17;1.13;;;9.10;91.60;;;;;;5157200;27;20102;-77
2023/03/15 11:45:44;;;;;;;2.50;1.30;;;9.10;87.70;;;;;;5155731;27;20141;-76
2023/03/15 11:48:24;;;;;;;3.17;1.52;;;9.20;91.80;;;;;;5156733;27;20062;-76
2023/03/15 11:50:58;;;;;;;3.33;1.92;;;9.30;92.10;;;;;;5156212;27;20046;-76
2023/03/15 11:53:40;;;;;;;5.43;2.45;;;9.40;91.80;;;;;;5155848;27;20049;-77
2023/03/15 11:56:24;;;;;;;2.30;1.45;;;9.30;88.70;;;;;;5156264;27;20046;-76
2023/03/15 11:59:12;;;;;;;2.40;1.30;;;9.30;90.70;;;;;;5155630;27;20486;-76
2023/03/15 12:01:47;;;;;;;1.73;1.40;;;9.40;88.60;;;;;;5155654;27;20098;-75
2023/03/15 12:04:24;;;;;;;3.28;1.27;;;9.60;92.60;;;;;;5155609;27;20093;-75
2023/03/15 12:06:52;;;;;;;1.38;1.20;;;9.70;90.90;;;;;;5155695;27;20047;-75
2023/03/15 12:09:33;;;;;;;3.67;1.17;;;9.80;90.90;;;;;;5155668;27;20118;-76
2023/03/15 12:12:05;;;;;;;10.30;1.88;;;9.80;91.80;;;;;;5155945;27;20046;-75
2023/03/15 12:14:35;;;;;;;4.63;1.95;;;9.60;90.80;;;;;;5155822;27;20485;-75
2023/03/15 12:17:22;;;;;;;3.50;1.50;;;9.60;92.70;;;;;;5155472;27;20078;-75
2023/03/15 12:20:08;;;;;;;2.63;1.40;;;9.60;90.70;;;;;;5155342;27;20043;-77
2023/03/15 12:22:36;;;;;;;3.05;1.80;;;9.50;89.10;;;;;;5155228;27;20093;-77
2023/03/15 12:25:34;;;;;;;1.80;1.25;;;9.40;91.40;;;;;;5155436;27;20038;-76
2023/03/15 12:28:07;;;;;;;3.95;1.20;;;9.40;90.90;;;;;;5155153;27;20099;-76
2023/03/15 12:30:39;;;;;;;2.17;1.27;;;9.50;91.10;;;;;;5155432;27;20484;-76
2023/03/15 12:33:17;;;;;;;4.78;1.40;;;9.60;92.20;;;;;;5155394;27;20052;-76
2023/03/15 12:35:44;;;;;;;2.75;1.33;;;9.70;90.50;;;;;;5155095;27;20085;-76
2023/03/15 12:38:20;;;;;;;3.72;1.42;;;9.60;90.30;;;;;;5155225;27;20097;-76
2023/03/15 12:40:51;;;;;;;6.97;2.15;;;9.50;86.20;;;;;;5154966;27;20049;-76
2023/03/15 12:43:34;;;;;;;3.35;1.48;;;9.50;91.20;;;;;;5155117;27;20110;-75
2023/03/15 12:45:59;;;;;;;4.40;1.58;;;9.60;88.20;;;;;;5155036;27;20082;-76
2023/03/15 12:48:27;;;;;;;3.75;1.17;;;9.60;92.30;;;;;;5155165;27;20055;-76
2023/03/15 12:51:03;;;;;;;3.90;1.60;;;9.50;92.00;;;;;;5154992;27;20039;-76
2023/03/15 12:53:38;;;;;;;2.78;0.90;;;9.40;86.60;;;;;;5154818;27;20057;-76
2023/03/15 12:56:22;;;;;;;2.08;1.20;;;9.30;88.90;;;;;;5154975;27;20042;-76
2023/03/15 12:58:54;;;;;;;5.32;1.50;;;9.30;86.00;;;;;;5154579;27;20042;-76
2023/03/15 13:01:24;;;;;;;5.75;1.42;;;9.30;85.20;;;;;;5154155;27;20047;-76
2023/03/15 13:03:55;;;;;;;1.98;1.40;;;9.20;86.50;;;;;;5154223;27;20043;-76
2023/03/15 13:06:42;;;;;;;3.80;1.27;;;9.30;90.40;;;;;;5154440;27;20047;-75